Logo AVAMET
Benvolgut visitant, si us plau, ingressa Recuperar contrasenya

Atzeneta del Maestrat el Bovalar

Dades diàries. Acumulats / Últims 30 dies disponibles

Data Temperatura (°C) Humitat rel. (%) Pressió rel. (hPa) Vent (km/h) Precipitació
Mínima Mitjana Màxima Amplitud
tèrmica
Mínima Mitjana Màxima Mínima Mitjana Màxima Predom. Mitjana Ràfega
màxima
Total
(mm)
Índex-n
Mínima Mitjana Màxima Mínima Mitjana Màxima n
0 a 1
P0 max
mm 5'
Dades mensuals acumulades fins l'últim dia disponible
10/2018 13,9 15,2 16,8 21,9 27,2 28,3 29,9 16,0   4,0 30,6 0,9
Dades anuals acumulades fins l'últim dia disponible
2018 1,4 13,6 23,6 19,9 8,4 26,2 35,9 34,5   4,9 151,3 151,6
Últims 30 dies disponibles
07-10-2018 14,8     21,2     27,2 12,4 ESE 2,9 27,4 0,3
04-10-2018 13,9     21,2     27,7 13,8 W 5,0 30,6 0,3
02-10-2018 16,8     22,8     28,3 11,5 W 4,7 25,7 0,0
01-10-2018 15,1     22,3     29,9 14,8 SSE 3,2 22,5 0,3
07-09-2018 14,8     21,2     27,2 12,4 ESE 2,9 27,4 0,3
06-09-2018 15,2     20,4     26,6 11,4 SW 1,6 24,1 5,6
05-09-2018 17,1     22,2     29,6 12,5 W 4,5 53,1 0,0
04-09-2018 13,9     21,2     27,7 13,8 W 5,0 30,6 0,3
03-09-2018 15,8     21,8     27,0 11,2 SSW 2,9 37,0 6,6
02-09-2018 16,8     22,8     28,3 11,5 W 4,7 25,7 0,0
01-09-2018 15,1     22,3     29,9 14,8 SSE 3,2 22,5 0,3
30-08-2018 16,4     22,2     29,1 12,7 W 4,8 32,2 0,3
29-08-2018 17,7     23,4     31,2 13,5 ESE 2,3 33,8 1,8
28-08-2018 18,8     23,7     28,2 9,4 SSE 2,9 24,1 0,0
27-08-2018 15,8     23,4     30,2 14,4 SSW 3,5 29,0 0,0
26-08-2018 14,4     21,9     28,6 14,2 SW 3,4 27,4 0,0
25-08-2018 16,2     21,4     26,3 10,1 W 7,1 40,2 0,0
24-08-2018 19,3     23,7     29,9 10,6 W 12,7 40,2 0,0
23-08-2018 16,1     23,8     31,4 15,3 W 8,5 40,2 0,0
22-08-2018 19,2     24,0     30,9 11,7 W 8,9 30,6 0,0
21-08-2018 19,5     23,9     30,2 10,7 W 8,2 29,0 0,0
20-08-2018 15,2     23,9     31,8 16,6 W 4,5 24,1 0,0
19-08-2018 14,3     22,7     30,3 16,0 SW 2,7 27,4 0,0
18-08-2018 16,6     21,7     27,2 10,6 NE 4,7 22,5 0,0
17-08-2018 18,5     22,7     29,2 10,7 SW 3,7 25,7 0,0
16-08-2018 19,0     23,1     29,6 10,6 SSW 1,9 30,6 3,8
15-08-2018 15,9     22,0     27,8 11,9 W 6,3 37,0 0,0
14-08-2018 18,9     24,0     29,9 11,0 ENE 3,1 27,4 0,0
13-08-2018 17,3     23,5     30,3 13,0 ESE 1,8 20,9 1,3
12-08-2018 18,1     22,6     30,8 12,7 W 6,3 69,2 13,7
Últims 13 mesos disponibles
12/2017 1,1 5,0 11,2 9,1 5,7 13,6 20,6 19,5 14,3 143,2 0,0
11/2017 -0,2 7,0 15,4 11,6 9,9 16,8 22,0 22,2 13,7 111,0 0,3
10/2017 9,1 13,4 17,9 17,8 16,7 23,3 29,8 20,7 7,8 59,5 45,0
09/2017 6,7 13,8 18,8 19,2 18,1 25,5 34,1 27,4 6,3 101,4 58,4
05/2017 4,5 12,3 16,9 17,6 16,4 23,3 28,1 23,6 8,1 72,4 6,6
04/2017 2,4 7,4 12,9 13,1 10,1 19,0 27,9 25,5 8,9 103,0 0,6
03/2017 0,3 6,6 14,2 12,4 9,9 18,4 25,8 25,5 7,9 77,2 18,8
02/2017 0,9 5,2 11,8 9,7 9,4 14,9 20,2 19,3 8,7 135,2 10,6
05/2016 6,2 11,5 15,8 15,3 13,6 19,9 26,6 20,4 11,9 98,2 55,9
04/2016 4,9 8,9 13,0 12,6 12,3 17,2 22,7 17,8 12,3 91,7 33,9
03/2016 2,9 6,7 11,2 10,2 8,7 14,5 21,0 18,1 15,5 117,5 49,9
02/2016 -0,6 6,5 15,0 10,2 7,0 14,7 20,9 21,5 17,8 93,3 6,4
01/2016 3,3 7,0 12,3 10,5 7,3 14,2 18,8 15,5 12,3 90,1 3,4
Tots els anys disponibles
2017 -0,2 8,8 18,8 13,8 5,7 19,4 34,1 34,3 9,5 143,2 140,3
2016 -0,6 8,1 15,8 11,8 7,0 16,1 26,6 27,2 14,0 117,5 149,5
2015 -0,6 11,8 16,1 15,6 18,5 20,1 36,8 37,4 11,5 140,0 754,5
Temperatura (°C)
Humitat relativa (%)
Pressió (hPa)
Precipitació (mm)
Nota sobre les dades: s'avisa a l'usuari de la provisionalitat i no oficialitat d'aquestes dades
Logo AVAMET blanc
Web allotjada a Sollutia
Llicència de Creative CommonsLa web d'AVAMET i els seus continguts estan subjectes a una llicència de
Reconeixement - No Comercial - Compartir igual
Últimes estacions: Aielo de Malferit - Centre (Soci), Faura (Inforatge), Benifairó de les Valls (Inforatge), Xàbia - Les Valls (Soci), Xàbia - Alt de la Granadella (Soci), Villena - Sierra de Salinas (Soci), Sueca - Centre (Inforatge) - - -